createdAt,value
2018-08-16T00:01:27.043Z,95.50
2018-08-16T00:03:55.438Z,95.60
2018-08-16T00:06:24.703Z,95.50
2018-08-16T00:08:53.171Z,95.50
2018-08-16T00:11:21.431Z,95.80
2018-08-16T00:13:49.655Z,95.80
2018-08-16T00:16:17.899Z,95.70
2018-08-16T00:18:46.297Z,95.90
2018-08-16T00:21:14.541Z,95.80
2018-08-16T00:23:42.767Z,96.00
2018-08-16T00:26:11.109Z,96.00
2018-08-16T00:28:39.375Z,96.10
2018-08-16T00:31:07.632Z,96.10
2018-08-16T00:33:35.862Z,96.40
2018-08-16T00:36:04.116Z,96.60
2018-08-16T00:38:32.348Z,96.50
2018-08-16T00:41:00.587Z,96.70
2018-08-16T00:43:28.818Z,96.10
2018-08-16T00:45:57.151Z,96.50
2018-08-16T00:48:25.378Z,96.90
2018-08-16T00:50:53.632Z,96.80
2018-08-16T00:53:21.864Z,96.60
2018-08-16T00:55:50.121Z,96.00
2018-08-16T00:58:18.345Z,96.60
2018-08-16T01:00:46.600Z,96.50
2018-08-16T01:03:14.843Z,96.90
2018-08-16T01:05:43.074Z,97.00
2018-08-16T01:08:11.311Z,96.70
2018-08-16T01:10:39.526Z,96.90
2018-08-16T01:13:07.754Z,97.10
2018-08-16T01:15:35.994Z,97.20
2018-08-16T01:18:04.227Z,97.30
2018-08-16T01:20:32.441Z,97.60
2018-08-16T01:23:00.658Z,97.50
2018-08-16T01:25:29.434Z,97.20
2018-08-16T01:27:58.906Z,97.40
2018-08-16T01:30:27.121Z,97.70
2018-08-16T01:32:57.624Z,97.10
2018-08-16T01:35:26.724Z,97.40
2018-08-16T01:37:56.049Z,97.70
2018-08-16T01:40:24.283Z,97.60
2018-08-16T01:42:52.517Z,97.90
2018-08-16T01:45:21.468Z,98.00
2018-08-16T01:47:51.137Z,98.00
2018-08-16T01:50:19.361Z,98.20
2018-08-16T01:52:48.452Z,98.30
2018-08-16T01:55:16.666Z,98.30
2018-08-16T01:57:44.986Z,98.30
2018-08-16T02:00:13.206Z,98.50
2018-08-16T02:02:41.430Z,98.30
2018-08-16T02:05:09.674Z,98.10
2018-08-16T02:07:37.890Z,98.30
2018-08-16T02:10:07.101Z,98.00
2018-08-16T02:12:35.333Z,98.10
2018-08-16T02:15:03.638Z,98.00
2018-08-16T02:17:31.859Z,97.40
2018-08-16T02:20:00.070Z,97.20
2018-08-16T02:22:28.303Z,97.40
2018-08-16T02:24:56.515Z,97.30
2018-08-16T02:27:31.120Z,97.50
2018-08-16T02:29:59.319Z,97.70
2018-08-16T02:32:27.551Z,98.10
2018-08-16T02:34:55.771Z,98.20
2018-08-16T02:37:23.985Z,98.40
2018-08-16T02:39:52.194Z,98.80
2018-08-16T02:42:20.416Z,98.50
2018-08-16T02:44:48.617Z,98.70
2018-08-16T02:47:16.823Z,99.00
2018-08-16T02:49:45.037Z,99.20
2018-08-16T02:52:13.249Z,98.90
2018-08-16T02:54:43.889Z,99.20
2018-08-16T02:57:12.098Z,99.10
2018-08-16T02:59:40.309Z,99.40
2018-08-16T03:02:08.629Z,99.40
2018-08-16T03:04:36.851Z,99.10
2018-08-16T03:07:05.086Z,98.60
2018-08-16T03:09:33.386Z,98.60
2018-08-16T03:12:01.597Z,98.40
2018-08-16T03:14:29.819Z,98.40
2018-08-16T03:17:03.987Z,97.50
2018-08-16T03:19:32.239Z,97.60
2018-08-16T03:22:00.488Z,97.70
2018-08-16T03:24:28.719Z,97.70
2018-08-16T03:26:56.927Z,98.00
2018-08-16T03:29:25.145Z,98.00
2018-08-16T03:31:53.364Z,98.20
2018-08-16T03:34:21.581Z,98.30
2018-08-16T03:36:49.790Z,98.50
2018-08-16T03:39:18.018Z,98.60
2018-08-16T03:41:52.810Z,98.60
2018-08-16T03:44:21.077Z,99.00
2018-08-16T03:46:49.286Z,98.90
2018-08-16T03:49:17.494Z,98.90
2018-08-16T03:51:45.710Z,99.00
2018-08-16T03:54:14.104Z,99.00
2018-08-16T03:56:42.310Z,98.60
2018-08-16T03:59:10.535Z,99.10
2018-08-16T04:01:38.762Z,99.20
2018-08-16T04:04:06.988Z,99.50
2018-08-16T04:06:35.411Z,99.40
2018-08-16T04:09:04.918Z,99.30
2018-08-16T04:11:33.129Z,99.30
2018-08-16T04:14:01.353Z,98.90
2018-08-16T04:16:29.563Z,98.60
2018-08-16T04:18:57.794Z,98.20
2018-08-16T04:21:26.725Z,98.80
2018-08-16T04:23:55.024Z,98.20
2018-08-16T04:26:23.876Z,98.40
2018-08-16T04:28:52.086Z,98.50
2018-08-16T04:31:20.313Z,98.00
2018-08-16T04:33:48.522Z,98.40
2018-08-16T04:36:16.761Z,98.50
2018-08-16T04:38:44.962Z,98.80
2018-08-16T04:41:13.191Z,99.00
2018-08-16T04:43:41.398Z,99.00
2018-08-16T04:46:09.633Z,98.90
2018-08-16T04:48:37.913Z,98.60
2018-08-16T04:51:06.167Z,98.90
2018-08-16T04:53:34.378Z,99.30
2018-08-16T04:56:02.598Z,99.10
2018-08-16T04:58:30.826Z,99.40
2018-08-16T05:00:59.052Z,99.50
2018-08-16T05:03:27.269Z,99.30
2018-08-16T05:05:55.506Z,99.40
2018-08-16T05:08:24.518Z,98.70
2018-08-16T05:10:52.788Z,99.00
2018-08-16T05:13:20.990Z,99.20
2018-08-16T05:15:49.236Z,99.10
2018-08-16T05:18:17.430Z,99.60
2018-08-16T05:20:48.466Z,99.30
2018-08-16T05:23:16.802Z,99.10
2018-08-16T05:25:45.023Z,99.70
2018-08-16T05:28:13.250Z,99.40
2018-08-16T05:30:41.519Z,98.90
2018-08-16T05:33:09.708Z,98.70
2018-08-16T05:35:37.936Z,98.50
2018-08-16T05:38:06.178Z,99.10
2018-08-16T05:43:15.197Z,99.50
2018-08-16T05:45:43.443Z,99.30
2018-08-16T05:48:11.652Z,99.60
2018-08-16T05:50:39.925Z,99.80
2018-08-16T05:53:08.157Z,99.90
2018-08-16T05:55:36.429Z,99.40
2018-08-16T05:58:04.643Z,99.60
2018-08-16T06:00:32.856Z,99.60
2018-08-16T06:03:01.078Z,99.50
2018-08-16T06:05:29.281Z,99.40
2018-08-16T06:07:57.523Z,99.70
2018-08-16T06:10:25.792Z,98.80
2018-08-16T06:12:54.010Z,99.30
2018-08-16T06:15:22.228Z,99.50
2018-08-16T06:17:50.446Z,99.50
2018-08-16T06:20:18.661Z,99.30
2018-08-16T06:22:46.882Z,99.20
2018-08-16T06:25:15.105Z,99.00
2018-08-16T06:27:44.043Z,99.00
2018-08-16T06:30:14.370Z,98.60
2018-08-16T06:32:42.966Z,98.40
2018-08-16T06:35:11.191Z,98.00
2018-08-16T06:37:39.417Z,97.40
2018-08-16T06:40:10.311Z,98.00
2018-08-16T06:42:38.537Z,97.30
2018-08-16T06:45:07.711Z,97.20
2018-08-16T06:47:35.960Z,97.30
2018-08-16T06:50:04.638Z,97.50
2018-08-16T06:52:32.988Z,97.10
2018-08-16T06:55:01.834Z,97.30
2018-08-16T06:57:30.062Z,96.70
2018-08-16T06:59:58.306Z,96.90
2018-08-16T07:02:26.637Z,96.50
2018-08-16T07:04:55.096Z,96.40
2018-08-16T07:07:23.298Z,95.80
2018-08-16T07:09:51.515Z,95.20
2018-08-16T07:12:19.922Z,95.20
2018-08-16T07:14:48.075Z,94.90
2018-08-16T07:17:16.303Z,94.70
2018-08-16T07:19:44.558Z,94.30
2018-08-16T07:22:13.095Z,94.20
2018-08-16T07:24:41.334Z,93.70
2018-08-16T07:27:09.566Z,93.80
2018-08-16T07:29:37.792Z,93.40
2018-08-16T07:34:40.692Z,93.50
2018-08-16T07:37:08.954Z,93.10
2018-08-16T07:39:37.162Z,93.00
2018-08-16T07:42:05.383Z,92.60
2018-08-16T07:44:33.596Z,92.10
2018-08-16T07:47:01.818Z,92.10
2018-08-16T07:49:30.071Z,91.90
2018-08-16T07:51:58.310Z,91.60
2018-08-16T07:54:26.524Z,90.50
2018-08-16T07:56:54.746Z,87.80
2018-08-16T07:59:22.976Z,85.90
2018-08-16T08:01:51.184Z,85.00
2018-08-16T08:04:19.407Z,81.70
2018-08-16T08:06:47.615Z,79.60
2018-08-16T08:09:15.867Z,79.70
2018-08-16T08:11:44.074Z,78.90
2018-08-16T08:14:12.290Z,76.00
2018-08-16T08:16:40.514Z,74.60
2018-08-16T08:19:08.746Z,74.60
2018-08-16T08:21:36.959Z,71.40
2018-08-16T08:24:05.202Z,70.70
2018-08-16T08:26:33.406Z,70.50
2018-08-16T08:29:01.668Z,68.00
2018-08-16T08:31:29.920Z,68.50
2018-08-16T08:33:58.138Z,68.50
2018-08-16T08:36:37.985Z,67.40
2018-08-16T08:39:07.695Z,67.00
2018-08-16T08:41:35.914Z,66.70
2018-08-16T08:44:10.630Z,66.10
2018-08-16T08:46:38.838Z,63.50
2018-08-16T08:49:07.057Z,64.00
2018-08-16T08:51:35.295Z,62.20
2018-08-16T08:54:21.878Z,61.60
2018-08-16T08:57:01.475Z,63.00
2018-08-16T08:59:29.727Z,62.10
2018-08-16T09:01:57.916Z,60.90
2018-08-16T09:04:26.147Z,59.90
2018-08-16T09:06:54.424Z,59.80
2018-08-16T09:09:22.587Z,59.20
2018-08-16T09:12:02.268Z,59.70
2018-08-16T09:14:41.916Z,58.10
2018-08-16T09:17:10.118Z,58.10
2018-08-16T09:19:38.333Z,57.00
2018-08-16T09:22:06.563Z,56.10
2018-08-16T09:24:34.849Z,56.20
2018-08-16T09:27:03.065Z,55.10
2018-08-16T09:30:41.123Z,56.10
2018-08-16T09:33:20.830Z,55.10
2018-08-16T09:35:49.051Z,53.50
2018-08-16T09:38:17.263Z,53.90
2018-08-16T09:40:45.483Z,53.70
2018-08-16T09:43:13.702Z,51.70
2018-08-16T09:46:57.642Z,51.60
2018-08-16T09:49:26.104Z,51.70
2018-08-16T09:51:54.633Z,49.90
2018-08-16T09:54:22.906Z,50.60
2018-08-16T09:56:51.636Z,50.70
2018-08-16T09:59:20.118Z,48.70
2018-08-16T10:01:48.352Z,49.80
2018-08-16T10:04:16.576Z,49.10
2018-08-16T10:06:45.074Z,49.10
2018-08-16T10:09:19.290Z,48.10
2018-08-16T10:11:48.015Z,48.10
2018-08-16T10:14:16.545Z,48.60
2018-08-16T10:16:45.630Z,48.70
2018-08-16T10:19:13.838Z,47.20
2018-08-16T10:21:42.150Z,47.60
2018-08-16T10:24:10.372Z,47.00
2018-08-16T10:26:38.609Z,47.10
2018-08-16T10:29:07.381Z,46.80
2018-08-16T10:31:35.630Z,46.20
2018-08-16T10:34:03.850Z,46.40
2018-08-16T10:36:32.136Z,45.00
2018-08-16T10:39:00.331Z,45.80
2018-08-16T10:41:29.034Z,45.80
2018-08-16T10:43:57.282Z,44.90
2018-08-16T10:46:25.579Z,45.20
2018-08-16T10:48:54.541Z,44.40
2018-08-16T10:51:22.799Z,44.50
2018-08-16T10:53:51.014Z,44.70
2018-08-16T10:56:19.255Z,43.70
2018-08-16T10:58:47.485Z,44.60
2018-08-16T11:01:15.736Z,44.60
2018-08-16T11:03:44.190Z,42.80
2018-08-16T11:06:12.471Z,43.50
2018-08-16T11:08:40.678Z,44.00
2018-08-16T11:11:08.997Z,42.40
2018-08-16T11:13:37.202Z,42.90
2018-08-16T11:16:05.441Z,42.50
2018-08-16T11:18:33.659Z,42.30
2018-08-16T11:21:01.892Z,42.80
2018-08-16T11:23:30.170Z,43.00
2018-08-16T11:25:58.441Z,42.30
2018-08-16T11:28:26.658Z,41.60
2018-08-16T11:30:54.877Z,42.40
2018-08-16T11:33:23.093Z,42.10
2018-08-16T11:35:51.335Z,40.60
2018-08-16T11:38:19.550Z,40.90
2018-08-16T11:40:47.904Z,41.30
2018-08-16T11:43:15.998Z,42.00
2018-08-16T11:45:44.226Z,41.00
2018-08-16T11:48:12.463Z,41.70
2018-08-16T11:50:40.698Z,42.70
2018-08-16T11:53:08.927Z,42.20
2018-08-16T11:55:37.162Z,41.70
2018-08-16T11:58:05.566Z,41.20
2018-08-16T12:00:33.764Z,42.80
2018-08-16T12:03:01.990Z,42.40
2018-08-16T12:05:30.197Z,42.60
2018-08-16T12:07:58.414Z,42.60
2018-08-16T12:10:26.638Z,42.40
2018-08-16T12:12:54.858Z,43.10
2018-08-16T12:15:23.109Z,42.00
2018-08-16T12:17:51.303Z,43.10
2018-08-16T12:20:19.510Z,42.30
2018-08-16T12:22:47.721Z,43.90
2018-08-16T12:25:15.934Z,43.30
2018-08-16T12:27:44.142Z,42.70
2018-08-16T12:30:12.380Z,43.60
2018-08-16T12:32:40.590Z,42.80
2018-08-16T12:35:09.037Z,43.30
2018-08-16T12:37:37.262Z,43.90
2018-08-16T12:40:06.746Z,44.70
2018-08-16T12:42:35.204Z,44.30
2018-08-16T12:45:03.491Z,44.50
2018-08-16T12:47:31.742Z,43.60
2018-08-16T12:50:00.022Z,45.20
2018-08-16T12:52:28.230Z,44.40
2018-08-16T12:54:56.447Z,44.80
2018-08-16T12:57:24.714Z,45.20
2018-08-16T12:59:52.940Z,45.00
2018-08-16T13:02:21.197Z,45.20
2018-08-16T13:04:49.414Z,44.10
2018-08-16T13:07:17.635Z,44.90
2018-08-16T13:09:45.978Z,45.50
2018-08-16T13:12:14.380Z,45.30
2018-08-16T13:14:42.631Z,45.40
2018-08-16T13:19:45.658Z,44.90
2018-08-16T13:22:13.895Z,45.60
2018-08-16T13:24:42.124Z,46.00
2018-08-16T13:27:10.374Z,46.20
2018-08-16T13:29:38.582Z,46.10
2018-08-16T13:32:07.028Z,45.80
2018-08-16T13:34:35.267Z,45.60
2018-08-16T13:37:03.584Z,46.40
2018-08-16T13:39:31.791Z,46.50
2018-08-16T13:42:00.011Z,46.70
2018-08-16T13:44:28.542Z,46.30
2018-08-16T13:46:56.776Z,46.60
2018-08-16T13:49:25.014Z,47.00
2018-08-16T13:51:53.222Z,46.80
2018-08-16T13:54:21.467Z,45.80
2018-08-16T13:56:49.719Z,46.30
2018-08-16T13:59:17.955Z,46.70
2018-08-16T14:01:46.281Z,47.50
2018-08-16T14:04:14.531Z,47.40
2018-08-16T14:06:42.748Z,46.20
2018-08-16T14:09:12.079Z,46.30
2018-08-16T14:11:40.386Z,46.20
2018-08-16T14:14:11.650Z,46.10
2018-08-16T14:16:39.884Z,46.50
2018-08-16T14:19:08.238Z,46.70
2018-08-16T14:21:36.527Z,47.30
2018-08-16T14:24:05.881Z,47.30
2018-08-16T14:26:34.095Z,47.00
2018-08-16T14:29:02.326Z,46.00
2018-08-16T14:31:30.535Z,45.70
2018-08-16T14:33:58.744Z,47.20
2018-08-16T14:36:26.972Z,47.20
2018-08-16T14:38:55.180Z,46.90
2018-08-16T14:41:23.398Z,46.90
2018-08-16T14:43:51.603Z,46.50
2018-08-16T14:46:19.823Z,47.00
2018-08-16T14:48:48.031Z,46.90
2018-08-16T14:51:16.281Z,46.80
2018-08-16T14:53:44.499Z,47.00
2018-08-16T14:56:12.725Z,47.60
2018-08-16T14:58:40.986Z,47.60
2018-08-16T15:01:09.234Z,47.00
2018-08-16T15:03:37.457Z,47.00
2018-08-16T15:06:05.703Z,47.00
2018-08-16T15:08:33.948Z,45.80
2018-08-16T15:11:02.174Z,46.70
2018-08-16T15:13:30.401Z,47.00
2018-08-16T15:15:58.636Z,47.90
2018-08-16T15:18:26.857Z,47.10
2018-08-16T15:20:55.084Z,47.50
2018-08-16T15:23:23.929Z,47.10
2018-08-16T15:25:53.067Z,46.80
2018-08-16T15:28:29.731Z,47.50
2018-08-16T15:31:00.772Z,47.30
2018-08-16T15:33:29.181Z,46.70
2018-08-16T15:35:57.409Z,47.00
2018-08-16T15:38:25.633Z,47.20
2018-08-16T15:40:53.874Z,47.10
2018-08-16T15:43:22.077Z,46.90
2018-08-16T15:45:50.351Z,46.80
2018-08-16T15:48:18.569Z,47.00
2018-08-16T15:50:46.799Z,47.40
2018-08-16T15:53:15.055Z,47.60
2018-08-16T15:55:43.284Z,46.80
2018-08-16T15:58:11.783Z,46.90
2018-08-16T16:00:40.025Z,46.90
2018-08-16T16:03:08.253Z,47.30
2018-08-16T16:05:36.644Z,47.30
2018-08-16T16:08:05.099Z,47.50
2018-08-16T16:10:33.361Z,47.30
2018-08-16T16:13:01.940Z,47.20
2018-08-16T16:15:30.310Z,47.40
2018-08-16T16:17:58.559Z,48.50
2018-08-16T16:20:26.912Z,47.70
2018-08-16T16:22:55.150Z,47.40
2018-08-16T16:25:23.370Z,47.30
2018-08-16T16:27:51.684Z,47.40
2018-08-16T16:30:20.046Z,47.20
2018-08-16T16:32:48.291Z,47.20
2018-08-16T16:35:16.677Z,48.40
2018-08-16T16:37:44.941Z,48.30
2018-08-16T16:40:13.207Z,47.30
2018-08-16T16:42:41.459Z,47.40
2018-08-16T16:45:09.934Z,48.50
2018-08-16T16:47:38.247Z,48.10
2018-08-16T16:50:07.510Z,47.40
2018-08-16T16:52:35.777Z,47.30
2018-08-16T16:55:04.296Z,48.10
2018-08-16T16:57:32.532Z,48.60
2018-08-16T17:00:00.758Z,48.40
2018-08-16T17:02:28.988Z,47.70
2018-08-16T17:04:57.256Z,47.00
2018-08-16T17:07:25.574Z,47.80
2018-08-16T17:09:53.752Z,48.60
2018-08-16T17:12:22.001Z,48.80
2018-08-16T17:14:50.212Z,49.30
2018-08-16T17:17:18.455Z,49.80
2018-08-16T17:19:46.671Z,51.10
2018-08-16T17:22:15.262Z,51.80
2018-08-16T17:24:43.506Z,52.00
2018-08-16T17:27:11.751Z,52.20
2018-08-16T17:29:39.964Z,53.10
2018-08-16T17:32:08.458Z,53.70
2018-08-16T17:34:36.655Z,52.20
2018-08-16T17:37:04.935Z,52.90
2018-08-16T17:39:33.186Z,53.60
2018-08-16T17:42:01.402Z,54.30
2018-08-16T17:44:29.620Z,55.00
2018-08-16T17:46:57.929Z,55.40
2018-08-16T17:49:26.217Z,56.20
2018-08-16T17:51:54.441Z,58.20
2018-08-16T17:54:22.666Z,58.70
2018-08-16T17:56:50.893Z,60.00
2018-08-16T17:59:19.126Z,60.50
2018-08-16T18:01:47.344Z,60.70
2018-08-16T18:04:15.562Z,60.40
2018-08-16T18:06:43.885Z,60.70
2018-08-16T18:09:12.128Z,59.90
2018-08-16T18:11:40.371Z,60.90
2018-08-16T18:14:08.582Z,61.10
2018-08-16T18:16:36.820Z,62.20
2018-08-16T18:19:05.069Z,62.30
2018-08-16T18:21:33.295Z,58.70
2018-08-16T18:24:01.559Z,56.70
2018-08-16T18:26:30.246Z,55.40
2018-08-16T18:28:58.523Z,54.90
2018-08-16T18:31:26.770Z,54.90
2018-08-16T18:33:54.998Z,54.80
2018-08-16T18:36:23.266Z,54.30
2018-08-16T18:38:51.511Z,54.30
2018-08-16T18:41:19.718Z,54.50
2018-08-16T18:43:48.073Z,54.50
2018-08-16T18:46:16.360Z,54.90
2018-08-16T18:48:44.589Z,56.20
2018-08-16T18:51:13.302Z,56.60
2018-08-16T18:53:41.563Z,57.40
2018-08-16T18:56:09.773Z,56.90
2018-08-16T18:58:37.990Z,57.40
2018-08-16T19:01:06.310Z,57.50
2018-08-16T19:03:34.632Z,57.30
2018-08-16T19:06:02.833Z,57.10
2018-08-16T19:08:31.042Z,56.70
2018-08-16T19:10:59.300Z,55.90
2018-08-16T19:13:27.513Z,55.90
2018-08-16T19:15:55.869Z,56.30
2018-08-16T19:18:24.077Z,55.90
2018-08-16T19:20:52.467Z,55.80
2018-08-16T19:23:20.706Z,55.30
2018-08-16T19:25:48.967Z,55.50
2018-08-16T19:28:17.194Z,55.50
2018-08-16T19:30:45.458Z,55.70
2018-08-16T19:33:13.725Z,56.20
2018-08-16T19:35:41.999Z,56.10
2018-08-16T19:38:10.188Z,55.10
2018-08-16T19:40:38.430Z,54.90
2018-08-16T19:43:06.674Z,54.50
2018-08-16T19:45:34.951Z,54.50
2018-08-16T19:48:03.209Z,54.40
2018-08-16T19:50:31.442Z,53.70
2018-08-16T19:52:59.641Z,54.30
2018-08-16T19:55:27.862Z,55.00
2018-08-16T19:57:56.130Z,55.00
2018-08-16T20:00:24.428Z,54.30
2018-08-16T20:02:52.734Z,54.40
2018-08-16T20:05:20.965Z,53.90
2018-08-16T20:07:49.177Z,54.90
2018-08-16T20:10:17.426Z,55.40
2018-08-16T20:12:45.640Z,56.10
2018-08-16T20:15:13.886Z,56.20
2018-08-16T20:17:42.097Z,56.80
2018-08-16T20:20:10.375Z,55.50
2018-08-16T20:22:38.583Z,56.00
2018-08-16T20:25:06.858Z,57.10
2018-08-16T20:27:35.053Z,57.20
2018-08-16T20:30:03.302Z,56.40
2018-08-16T20:32:31.550Z,56.80
2018-08-16T20:34:59.799Z,56.00
2018-08-16T20:37:28.021Z,55.20
2018-08-16T20:39:56.262Z,56.00
2018-08-16T20:42:24.500Z,57.40
2018-08-16T20:44:52.763Z,58.30
2018-08-16T20:47:21.000Z,57.20
2018-08-16T20:49:49.421Z,58.40
2018-08-16T20:52:17.930Z,57.10
2018-08-16T20:54:46.154Z,57.30
2018-08-16T20:57:14.474Z,59.50
2018-08-16T20:59:42.681Z,60.10
2018-08-16T21:03:14.303Z,60.10
2018-08-16T21:05:42.529Z,58.40
2018-08-16T21:08:17.583Z,61.70
2018-08-16T21:10:45.827Z,62.50
2018-08-16T21:13:14.038Z,63.70
2018-08-16T21:15:42.267Z,62.20
2018-08-16T21:18:10.551Z,62.50
2018-08-16T21:20:38.784Z,61.70
2018-08-16T21:23:07.269Z,62.90
2018-08-16T21:25:35.492Z,64.20
2018-08-16T21:28:03.750Z,63.70
2018-08-16T21:30:32.042Z,64.60
2018-08-16T21:33:00.232Z,64.60
2018-08-16T21:35:28.463Z,65.50
2018-08-16T21:37:56.695Z,66.10
2018-08-16T21:40:25.033Z,67.00
2018-08-16T21:42:53.264Z,67.40
2018-08-16T21:45:21.508Z,67.30
2018-08-16T21:47:49.951Z,69.00
2018-08-16T21:50:18.182Z,69.40
2018-08-16T21:52:46.419Z,69.40
2018-08-16T21:55:14.656Z,69.70
2018-08-16T21:57:42.891Z,69.70
2018-08-16T22:00:12.757Z,70.10
2018-08-16T22:02:40.997Z,70.90
2018-08-16T22:05:09.225Z,71.30
2018-08-16T22:08:11.543Z,70.30
2018-08-16T22:10:40.888Z,69.30
2018-08-16T22:13:09.150Z,70.60
2018-08-16T22:15:37.741Z,71.70
2018-08-16T22:18:06.292Z,69.60
2018-08-16T22:20:34.438Z,72.70
2018-08-16T22:23:02.695Z,73.50
2018-08-16T22:25:30.961Z,73.40
2018-08-16T22:27:59.182Z,73.60
2018-08-16T22:30:27.415Z,73.50
2018-08-16T22:32:55.639Z,73.90
2018-08-16T22:35:23.863Z,73.50
2018-08-16T22:37:52.158Z,73.00
2018-08-16T22:40:20.423Z,74.30
2018-08-16T22:42:48.712Z,74.30
2018-08-16T22:45:16.937Z,74.50
2018-08-16T22:47:45.168Z,74.30
2018-08-16T22:50:13.406Z,75.00
2018-08-16T22:52:41.631Z,75.10
2018-08-16T22:55:09.871Z,75.10
2018-08-16T22:57:38.090Z,75.90
2018-08-16T23:00:07.150Z,76.40
2018-08-16T23:02:35.947Z,77.20
2018-08-16T23:05:04.537Z,77.90
2018-08-16T23:07:32.724Z,77.40
2018-08-16T23:10:00.951Z,77.00
2018-08-16T23:12:29.158Z,77.70
2018-08-16T23:14:57.714Z,77.40
2018-08-16T23:17:25.947Z,76.60
2018-08-16T23:19:54.182Z,78.00
2018-08-16T23:22:22.421Z,78.40
2018-08-16T23:24:50.651Z,76.80
2018-08-16T23:27:18.904Z,77.30
2018-08-16T23:29:47.143Z,78.80
2018-08-16T23:32:15.386Z,80.10
2018-08-16T23:34:43.639Z,79.90
2018-08-16T23:37:11.859Z,81.10
2018-08-16T23:39:40.081Z,80.40
2018-08-16T23:42:08.322Z,81.20
2018-08-16T23:44:36.613Z,81.10
2018-08-16T23:47:04.822Z,81.60
2018-08-16T23:49:33.070Z,80.00
2018-08-16T23:52:01.290Z,80.80
2018-08-16T23:54:29.535Z,80.90
2018-08-16T23:56:57.843Z,78.00
2018-08-16T23:59:26.086Z,78.70
